createdAt,value
2022-10-25T12:43:01.593Z,1.10
2022-10-25T12:48:01.394Z,1.10
2022-10-25T12:53:01.363Z,0.90
2022-10-25T12:58:01.288Z,1.10
2022-10-25T13:03:01.403Z,1.00
2022-10-25T13:08:01.182Z,0.70
2022-10-25T13:13:01.142Z,0.90
2022-10-25T13:18:01.065Z,0.60
2022-10-25T13:23:01.151Z,0.70
2022-10-25T13:28:00.956Z,0.70
2022-10-25T13:33:00.956Z,0.60
2022-10-25T13:38:00.851Z,0.80
2022-10-25T13:43:00.946Z,0.60
2022-10-25T13:48:00.734Z,0.50
2022-10-25T13:53:02.520Z,0.60
2022-10-25T13:58:00.636Z,0.60
2022-10-25T14:03:00.602Z,0.60
2022-10-25T14:08:00.525Z,0.80
2022-10-25T14:13:00.469Z,0.80
2022-10-25T14:18:00.421Z,1.20
2022-10-25T14:23:00.384Z,0.80
2022-10-25T14:28:00.313Z,0.60
2022-10-25T14:33:00.238Z,0.50
2022-10-25T14:38:00.203Z,0.90
2022-10-25T14:43:00.164Z,0.50
2022-10-25T14:48:00.099Z,0.60
2022-10-25T14:53:01.216Z,0.80
2022-10-25T14:57:59.985Z,0.70
2022-10-25T15:02:59.949Z,0.90
2022-10-25T15:07:59.890Z,0.70
2022-10-25T15:12:59.822Z,0.80
2022-10-25T15:17:59.754Z,0.70
2022-10-25T15:22:59.727Z,0.60
2022-10-25T15:27:59.655Z,0.70
2022-10-25T15:32:59.598Z,0.60
2022-10-25T15:37:59.546Z,0.90
2022-10-25T15:42:59.514Z,0.70
2022-10-25T15:47:59.432Z,1.00
2022-10-25T15:52:59.470Z,1.10
2022-10-25T15:57:59.329Z,0.90
2022-10-25T16:02:59.301Z,0.90
2022-10-25T16:07:59.210Z,0.80
2022-10-25T16:12:59.579Z,0.80
2022-10-25T16:17:59.126Z,0.90
2022-10-25T16:22:59.075Z,1.30
2022-10-25T16:27:59.007Z,1.20
2022-10-25T16:32:58.952Z,1.20
2022-10-25T16:37:58.948Z,1.10
2022-10-25T16:42:58.864Z,1.00
2022-10-25T16:47:58.847Z,1.10
2022-10-25T16:52:58.755Z,1.10
2022-10-25T16:57:58.674Z,1.20
2022-10-25T17:02:58.666Z,1.60
2022-10-25T17:07:58.566Z,1.40
2022-10-25T17:12:58.600Z,1.50
2022-10-25T17:17:58.457Z,1.80
2022-10-25T17:22:58.447Z,1.40
2022-10-25T17:27:58.351Z,1.20
2022-10-25T17:32:58.301Z,1.80
2022-10-25T17:37:58.251Z,1.50
2022-10-25T17:42:58.201Z,1.70
2022-10-25T17:47:58.149Z,1.80
2022-10-25T17:52:58.076Z,1.60
2022-10-25T17:57:58.113Z,2.10
2022-10-25T18:02:57.991Z,2.10
2022-10-25T18:08:04.967Z,2.40
2022-10-25T18:12:57.860Z,2.10
2022-10-25T18:17:57.823Z,2.40
2022-10-25T18:22:57.766Z,2.10
2022-10-25T18:27:57.711Z,2.60
2022-10-25T18:32:57.642Z,2.30
2022-10-25T18:37:57.599Z,2.00
2022-10-25T18:42:57.568Z,2.10
2022-10-25T18:47:57.492Z,2.30
2022-10-25T18:52:57.427Z,1.90
2022-10-25T18:57:57.385Z,1.80
2022-10-25T19:02:57.349Z,2.00
2022-10-25T19:07:57.279Z,2.20
2022-10-25T19:12:57.232Z,1.80
2022-10-25T19:17:57.169Z,1.80
2022-10-25T19:22:57.142Z,1.90
2022-10-25T19:27:57.044Z,2.20
2022-10-25T19:32:57.009Z,2.20
2022-10-25T19:37:56.979Z,2.10
2022-10-25T19:42:56.905Z,1.90
2022-10-25T19:47:56.839Z,2.00
2022-10-25T19:52:56.798Z,1.90
2022-10-25T19:57:56.719Z,1.80
2022-10-25T20:02:56.700Z,2.00
2022-10-25T20:07:56.629Z,1.80
2022-10-25T20:12:56.556Z,1.60
2022-10-25T20:17:56.511Z,2.00
2022-10-25T20:22:56.492Z,1.90
2022-10-25T20:27:56.479Z,2.00
2022-10-25T20:32:56.348Z,2.20
2022-10-25T20:37:56.293Z,1.80
2022-10-25T20:42:56.276Z,1.70
2022-10-25T20:47:56.171Z,1.70
2022-10-25T20:53:09.633Z,1.70
2022-10-25T20:57:57.082Z,1.90
2022-10-25T21:02:56.023Z,2.10
2022-10-25T21:07:55.963Z,1.70
2022-10-25T21:12:55.904Z,2.10
2022-10-25T21:17:55.839Z,1.80
2022-10-25T21:22:55.836Z,1.80
2022-10-25T21:27:55.731Z,1.80
2022-10-25T21:32:55.695Z,1.50
2022-10-25T21:37:55.923Z,1.80
2022-10-25T21:42:55.597Z,1.70
2022-10-25T21:47:55.536Z,1.90
2022-10-25T21:52:55.461Z,1.80
2022-10-25T21:57:55.841Z,1.60
2022-10-25T22:02:55.386Z,1.40
2022-10-25T22:07:55.290Z,1.50
2022-10-25T22:12:55.245Z,1.30
2022-10-25T22:17:55.211Z,1.40
2022-10-25T22:22:55.161Z,1.70
2022-10-25T22:27:55.082Z,1.50
2022-10-25T22:32:55.025Z,1.30
2022-10-25T22:37:54.988Z,1.70
2022-10-25T22:42:54.955Z,1.60
2022-10-25T22:47:54.864Z,1.50
2022-10-25T22:52:54.814Z,1.40
2022-10-25T22:57:54.734Z,1.80
2022-10-25T23:02:54.800Z,1.20
2022-10-25T23:07:54.651Z,1.50
2022-10-25T23:12:54.571Z,1.40
2022-10-25T23:17:54.532Z,1.50
2022-10-25T23:22:54.491Z,1.60
2022-10-25T23:27:54.407Z,1.20
